• Join FlightAware (Why Join?)
  • Login
  • US Flag 
07:31AM EDT


 

Airport Tracker/Info


-or-


 

Live Flight TrackerFlight Track Log ✈ N724AE ✈ 06-Apr-2013 ✈ KDFW - KMLI

Flight Track Log - Related Links

Times and Time Zones

All times are in EDT time to prevent confusion due to time zone crossing. See the N724AE flight status page for this flight to view local times or setup timezone preferences in your user account.

Time Position Orientation Groundspeed Altitude Reporting Facility
EDT Latitude Longitude Course Direction KTS MPH feet Rate Location/Type
09:52AM 32.8500 -97.0333 North 168 193 3,900  Level Dallas / Fort Worth TRACON
09:53AM 32.8000 -97.0000 151° Southeast 244 281 5,500 2,160 Climbing Dallas / Fort Worth TRACON
09:54AM 32.8505 -96.8000 North  Level FlightAware Approximate
09:54AM 32.7667 -96.9333 121° Southeast 295 339 7,900  Level Dallas / Fort Worth TRACON
09:55AM 32.9701 -96.8000 North  Level FlightAware Approximate
09:56AM 33.0897 -96.8019 356° North  Level FlightAware Approximate
09:56AM 32.9514 -96.8836 13° North 325 374 11,600  Level Fort Worth Center
09:57AM 33.2091 -96.8119 356° North  Level FlightAware Approximate
09:57AM 33.0536 -96.8731 North 355 409 12,800  Level Fort Worth Center
09:58AM 33.3286 -96.8167 North  Level FlightAware Approximate
09:58AM 33.1619 -96.8600 North 371 427 14,200  Level Fort Worth Center
09:59AM 33.2683 -96.8444 North 387 445 15,900 1,500 Climbing Fort Worth Center
10:00AM 33.3769 -96.8339 North 387 445 17,300 1,500 Climbing Fort Worth Center
10:01AM 33.4831 -96.8008 15° North 387 445 18,900 1,500 Climbing Fort Worth Center
10:02AM 33.5850 -96.7378 27° Northeast 401 461 20,300 1,440 Climbing Fort Worth Center
10:03AM 33.6744 -96.6747 30° Northeast 414 476 21,800 1,500 Climbing Fort Worth Center
10:04AM 33.7867 -96.5936 31° Northeast 430 495 23,400 1,500 Climbing Fort Worth Center
10:05AM 33.8844 -96.5278 29° Northeast 430 495 24,800 1,500 Climbing Fort Worth Center
10:06AM 33.9881 -96.4567 30° Northeast 430 495 26,400 1,440 Climbing Fort Worth Center
10:07AM 34.0817 -96.3903 30° Northeast 425 489 27,700 1,500 Climbing Fort Worth Center
10:08AM 34.1872 -96.3114 32° Northeast 419 482 29,400 1,620 Climbing Fort Worth Center
10:09AM 34.2889 -96.2397 30° Northeast 419 482 31,000 1,500 Climbing Fort Worth Center
10:10AM 34.3903 -96.1628 32° Northeast 419 482 32,500 1,500 Climbing Fort Worth Center
10:11AM 34.4939 -96.0933 29° Northeast 424 488 34,000 1,500 Climbing Fort Worth Center
10:12AM 34.5933 -96.0186 32° Northeast 424 488 35,500 1,440 Climbing Fort Worth Center
10:13AM 34.6947 -95.9461 30° Northeast 424 488 36,900 720 Climbing Fort Worth Center
10:14AM 34.7981 -95.8711 31° Northeast 424 488 37,000  Climbing Fort Worth Center
10:15AM 34.9100 -95.7956 29° Northeast 434 499 37,000  Level Fort Worth Center
10:16AM 35.0172 -95.7175 31° Northeast 439 505 37,000  Level Fort Worth Center
10:17AM 35.1247 -95.6392 31° Northeast 439 505 37,000  Level Fort Worth Center
10:19AM 35.2900 -95.5106 32° Northeast 448 516 37,000  Level Kansas City Center
10:19AM 35.3381 -95.4831 25° Northeast 444 511 37,000  Level Memphis Center
10:20AM 35.4433 -95.4031 32° Northeast 444 511 37,000  Level Memphis Center
10:21AM 35.5508 -95.3253 30° Northeast 444 511 37,000  Level Memphis Center
10:22AM 35.6331 -95.2586 33° Northeast 450 518 37,000  Level Kansas City Center
10:23AM 35.7400 -95.1797 31° Northeast 449 517 37,000  Level Kansas City Center
10:24AM 35.8461 -95.0994 32° Northeast 449 517 37,000  Level Kansas City Center
10:25AM 35.9783 -95.0047 30° Northeast 444 511 37,000  Level Memphis Center
10:27AM 36.1872 -94.8431 32° Northeast 450 518 37,000  Level Kansas City Center
10:28AM 36.2944 -94.7631 31° Northeast 450 518 37,000  Level Kansas City Center
10:29AM 36.4003 -94.6819 32° Northeast 451 519 37,000  Level Kansas City Center
10:30AM 36.5075 -94.6006 31° Northeast 451 519 37,000  Level Kansas City Center
10:31AM 36.6147 -94.5181 32° Northeast 453 521 37,000  Level Kansas City Center
10:32AM 36.7217 -94.4369 31° Northeast 453 521 37,000  Level Kansas City Center
10:33AM 36.8258 -94.3575 31° Northeast 451 519 37,000  Level Kansas City Center
10:34AM 36.9339 -94.2717 32° Northeast 449 517 37,000  Level Kansas City Center
10:35AM 37.0631 -94.1717 32° Northeast 453 521 37,000  Level Kansas City Center
10:36AM 37.1586 -94.0992 31° Northeast 453 521 37,000  Level Kansas City Center
10:37AM 37.2664 -94.0139 32° Northeast 454 522 37,000  Level Kansas City Center
10:38AM 37.3742 -93.9300 32° Northeast 454 522 37,000  Level Kansas City Center
10:40AM 37.5050 -93.8278 32° Northeast 457 526 37,000  Level Kansas City Center
10:41AM 37.6136 -93.7433 32° Northeast 457 526 37,000  Level Kansas City Center
10:42AM 37.7228 -93.6572 32° Northeast 459 528 37,000  Level Kansas City Center
10:43AM 37.8317 -93.5711 32° Northeast 459 528 37,000  Level Kansas City Center
10:44AM 37.9417 -93.4833 32° Northeast 462 532 37,000  Level Kansas City Center
10:45AM 38.0514 -93.3956 32° Northeast 463 533 37,000  Level Kansas City Center
10:46AM 38.1600 -93.3078 32° Northeast 461 531 37,000  Level Kansas City Center
10:47AM 38.2708 -93.2181 32° Northeast 464 534 37,000  Level Kansas City Center
10:48AM 38.3814 -93.1294 32° Northeast 465 535 37,000  Level Kansas City Center
10:49AM 38.4944 -93.0358 33° Northeast 474 545 37,000  Level Kansas City Center
10:50AM 38.6050 -92.9467 32° Northeast 470 541 37,000  Level Kansas City Center
10:51AM 38.7153 -92.8553 33° Northeast 468 539 37,000  Level Kansas City Center
10:52AM 38.8481 -92.7464 33° Northeast 469 540 37,000  Level Kansas City Center
10:53AM 38.9575 -92.6558 33° Northeast 466 536 37,000  Level Kansas City Center
10:54AM 39.0675 -92.5656 32° Northeast 465 535 37,000  Level Kansas City Center
10:55AM 39.1769 -92.4733 33° Northeast 466 536 37,000  Level Kansas City Center
10:56AM 39.2875 -92.3850 32° Northeast 463 533 37,000  Level Kansas City Center
10:57AM 39.3978 -92.2928 33° Northeast 468 539 37,000  Level Kansas City Center
10:58AM 39.5061 -92.2000 33° Northeast 470 541 37,000  Level Kansas City Center
10:59AM 39.6114 -92.1128 33° Northeast 463 533 37,000  Level Kansas City Center
11:00AM 39.7400 -92.0036 33° Northeast 466 536 37,000 -720 Level Kansas City Center
11:01AM 39.8478 -91.9106 34° Northeast 469 540 35,600 -1,440 Descending Kansas City Center
11:02AM 39.9525 -91.8222 33° Northeast 461 531 34,100 -1,500 Descending Kansas City Center
11:03AM 40.0572 -91.7319 33° Northeast 457 526 32,500 -1,800 Descending Kansas City Center
11:04AM 40.1606 -91.6433 33° Northeast 452 520 30,400 -2,340 Descending Kansas City Center
11:05AM 40.2869 -91.5350 33° Northeast 455 524 27,700 -2,400 Descending Kansas City Center
11:06AM 40.3911 -91.4439 34° Northeast 457 526 25,500 -2,160 Descending Kansas City Center
11:07AM 40.4747 -91.3719 33° Northeast 453 521 23,700 -2,280 Descending Chicago Center
11:08AM 40.5875 -91.2728 34° Northeast 448 516 21,200 -2,340 Descending Chicago Center
11:09AM 40.6894 -91.1831 34° Northeast 440 506 19,000 -2,280 Descending Chicago Center
11:10AM 40.7903 -91.0953 33° Northeast 433 498 16,600 -2,280 Descending Chicago Center
11:11AM 40.8889 -91.0067 34° Northeast 429 494 14,400 -2,280 Descending Chicago Center
11:12AM 40.9864 -90.9194 34° Northeast 423 487 12,000 -1,680 Descending Chicago Center
11:13AM 41.0792 -90.8542 28° Northeast 379 436 11,000 -1,080 Descending Chicago Center
11:14AM 41.1664 -90.8006 25° Northeast 349 402 9,900 -1,800 Descending Chicago Center
11:15AM 41.2639 -90.7408 25° Northeast 324 373 7,400 -2,220 Descending Chicago Center
11:16AM 41.3453 -90.6883 26° Northeast 325 374 5,400 -1,980 Descending Chicago Center